createdAt,value
2022-09-21T00:01:31.665Z,1.92
2022-09-21T00:04:03.168Z,1.80
2022-09-21T00:06:34.049Z,1.58
2022-09-21T00:09:04.931Z,2.20
2022-09-21T00:11:34.067Z,1.90
2022-09-21T00:14:07.973Z,1.80
2022-09-21T00:16:37.241Z,1.38
2022-09-21T00:19:06.535Z,1.95
2022-09-21T00:21:34.427Z,2.58
2022-09-21T00:24:02.818Z,2.15
2022-09-21T00:26:31.482Z,2.00
2022-09-21T00:29:02.244Z,1.92
2022-09-21T00:31:31.261Z,1.75
2022-09-21T00:34:00.165Z,1.83
2022-09-21T00:36:28.482Z,2.10
2022-09-21T00:39:00.978Z,1.70
2022-09-21T00:41:32.278Z,1.48
2022-09-21T00:46:48.275Z,2.78
2022-09-21T00:49:16.496Z,2.25
2022-09-21T00:51:45.215Z,2.22
2022-09-21T00:54:21.750Z,2.55
2022-09-21T00:56:49.695Z,2.90
2022-09-21T00:59:21.682Z,2.40
2022-09-21T01:01:50.625Z,2.45
2022-09-21T01:04:18.817Z,2.42
2022-09-21T01:06:47.933Z,1.90
2022-09-21T01:09:17.460Z,2.22
2022-09-21T01:12:15.023Z,2.10
2022-09-21T01:14:53.496Z,2.35
2022-09-21T01:17:24.434Z,2.22
2022-09-21T01:20:10.365Z,2.10
2022-09-21T01:23:46.180Z,2.28
2022-09-21T01:26:44.294Z,2.58
2022-09-21T01:29:20.968Z,2.53
2022-09-21T01:32:25.078Z,2.50
2022-09-21T01:35:15.051Z,2.65
2022-09-21T01:37:52.567Z,2.35
2022-09-21T01:40:36.500Z,1.90
2022-09-21T01:43:07.203Z,1.83
2022-09-21T01:45:46.481Z,2.28
2022-09-21T01:48:15.545Z,2.08
2022-09-21T01:50:50.620Z,2.17
2022-09-21T01:53:29.654Z,2.10
2022-09-21T01:56:02.387Z,2.17
2022-09-21T01:58:36.976Z,2.78
2022-09-21T02:01:07.283Z,1.85
2022-09-21T02:03:43.627Z,2.37
2022-09-21T02:06:11.870Z,1.67
2022-09-21T02:08:41.895Z,1.85
2022-09-21T02:11:11.950Z,2.00
2022-09-21T02:13:46.479Z,2.00
2022-09-21T02:16:35.487Z,1.83
2022-09-21T02:19:31.030Z,1.98
2022-09-21T02:23:06.509Z,2.10
2022-09-21T02:26:08.113Z,2.10
2022-09-21T02:28:51.313Z,1.67
2022-09-21T02:31:56.627Z,1.60
2022-09-21T02:34:50.228Z,2.38
2022-09-21T02:37:37.255Z,1.58
2022-09-21T02:40:15.708Z,1.80
2022-09-21T02:42:46.478Z,2.00
2022-09-21T02:45:22.109Z,1.83
2022-09-21T02:48:01.384Z,1.83
2022-09-21T02:51:05.153Z,1.98
2022-09-21T02:53:37.057Z,1.92
2022-09-21T02:56:07.294Z,2.55
2022-09-21T02:58:40.272Z,1.40
2022-09-21T03:01:11.727Z,1.70
2022-09-21T03:03:39.708Z,1.83
2022-09-21T03:06:07.824Z,2.08
2022-09-21T03:08:35.695Z,1.80
2022-09-21T03:11:03.639Z,2.17
2022-09-21T03:13:31.547Z,1.85
2022-09-21T03:16:05.934Z,1.60
2022-09-21T03:18:34.862Z,1.92
2022-09-21T03:21:03.256Z,1.92
2022-09-21T03:23:31.193Z,1.80
2022-09-21T03:25:59.021Z,2.08
2022-09-21T03:28:26.907Z,1.95
2022-09-21T03:30:55.004Z,1.85
2022-09-21T03:33:23.081Z,1.88
2022-09-21T03:35:51.577Z,1.90
2022-09-21T03:38:21.487Z,2.10
2022-09-21T03:40:50.111Z,1.42
2022-09-21T03:43:18.204Z,1.58
2022-09-21T03:45:47.011Z,1.98
2022-09-21T03:48:15.321Z,2.00
2022-09-21T03:50:43.584Z,2.47
2022-09-21T03:53:11.842Z,1.65
2022-09-21T03:55:39.857Z,1.80
2022-09-21T03:58:08.415Z,2.08
2022-09-21T04:00:37.964Z,1.75
2022-09-21T04:03:05.927Z,1.42
2022-09-21T04:05:33.725Z,1.95
2022-09-21T04:08:02.408Z,1.50
2022-09-21T04:10:33.175Z,1.80
2022-09-21T04:13:02.021Z,2.00
2022-09-21T04:15:30.905Z,1.90
2022-09-21T04:17:59.213Z,2.58
2022-09-21T04:20:27.871Z,1.67
2022-09-21T04:22:55.721Z,1.95
2022-09-21T04:25:23.539Z,1.63
2022-09-21T04:27:52.160Z,2.35
2022-09-21T04:30:20.400Z,2.25
2022-09-21T04:32:48.276Z,1.45
2022-09-21T04:35:16.416Z,1.30
2022-09-21T04:37:44.307Z,1.55
2022-09-21T04:40:12.173Z,1.70
2022-09-21T04:42:40.052Z,2.03
2022-09-21T04:45:08.489Z,1.77
2022-09-21T04:47:36.362Z,1.52
2022-09-21T04:50:04.718Z,1.65
2022-09-21T04:52:32.564Z,1.52
2022-09-21T04:55:00.402Z,2.38
2022-09-21T04:57:28.235Z,2.30
2022-09-21T04:59:56.221Z,2.28
2022-09-21T05:02:24.308Z,2.13
2022-09-21T05:04:52.156Z,2.53
2022-09-21T05:07:20.023Z,2.20
2022-09-21T05:10:03.235Z,2.70
2022-09-21T05:12:34.538Z,2.42
2022-09-21T05:17:30.127Z,2.35
2022-09-21T05:19:58.184Z,2.25
2022-09-21T05:22:25.972Z,1.60
2022-09-21T05:24:53.833Z,2.63
2022-09-21T05:27:21.864Z,2.70
2022-09-21T05:29:50.014Z,2.65
2022-09-21T05:32:36.062Z,2.30
2022-09-21T05:35:28.783Z,1.65
2022-09-21T05:37:56.695Z,2.00
2022-09-21T05:40:25.238Z,2.30
2022-09-21T05:42:53.609Z,2.40
2022-09-21T05:45:22.990Z,1.95
2022-09-21T05:48:10.207Z,2.17
2022-09-21T05:51:04.598Z,2.05
2022-09-21T05:53:50.842Z,2.38
2022-09-21T05:56:49.146Z,2.13
2022-09-21T05:59:45.095Z,2.10
2022-09-21T06:02:44.847Z,1.90
2022-09-21T06:05:16.069Z,1.92
2022-09-21T06:07:44.074Z,2.53
2022-09-21T06:10:15.901Z,2.00
2022-09-21T06:12:43.835Z,1.73
2022-09-21T06:15:15.270Z,1.80
2022-09-21T06:17:43.611Z,2.08
2022-09-21T06:20:11.507Z,2.00
2022-09-21T06:22:39.398Z,1.85
2022-09-21T06:25:07.713Z,2.28
2022-09-21T06:27:35.588Z,3.03
2022-09-21T06:30:03.574Z,2.22
2022-09-21T06:32:31.881Z,1.75
2022-09-21T06:34:59.761Z,1.98
2022-09-21T06:37:27.574Z,2.47
2022-09-21T06:39:55.540Z,3.00
2022-09-21T06:42:23.493Z,3.30
2022-09-21T06:44:51.322Z,2.17
2022-09-21T06:47:19.170Z,2.53
2022-09-21T06:49:47.060Z,3.00
2022-09-21T06:52:14.866Z,2.05
2022-09-21T06:54:42.730Z,2.25
2022-09-21T06:57:10.596Z,2.92
2022-09-21T06:59:38.577Z,2.60
2022-09-21T07:02:07.242Z,2.75
2022-09-21T07:04:35.193Z,2.97
2022-09-21T07:07:04.838Z,3.45
2022-09-21T07:12:20.577Z,3.03
2022-09-21T07:14:48.403Z,2.90
2022-09-21T07:17:16.275Z,2.60
2022-09-21T07:19:44.148Z,2.58
2022-09-21T07:22:12.002Z,2.83
2022-09-21T07:24:40.088Z,2.30
2022-09-21T07:27:08.090Z,2.13
2022-09-21T07:29:35.935Z,2.40
2022-09-21T07:32:05.349Z,2.25
2022-09-21T07:34:39.415Z,1.73
2022-09-21T07:37:07.228Z,2.85
2022-09-21T07:39:35.641Z,2.75
2022-09-21T07:42:03.504Z,2.13
2022-09-21T07:44:31.378Z,3.60
2022-09-21T07:46:59.673Z,2.78
2022-09-21T07:49:27.899Z,3.33
2022-09-21T07:51:58.120Z,3.22
2022-09-21T07:54:28.042Z,3.05
2022-09-21T07:57:14.718Z,2.88
2022-09-21T07:59:42.559Z,2.92
2022-09-21T08:02:10.399Z,3.35
2022-09-21T08:04:38.491Z,3.15
2022-09-21T08:07:06.379Z,2.88
2022-09-21T08:09:34.727Z,3.08
2022-09-21T08:12:02.694Z,3.42
2022-09-21T08:14:30.526Z,2.65
2022-09-21T08:16:58.370Z,2.78
2022-09-21T08:19:26.531Z,2.67
2022-09-21T08:21:57.543Z,3.10
2022-09-21T08:24:26.672Z,2.88
2022-09-21T08:26:55.819Z,2.83
2022-09-21T08:29:27.356Z,2.90
2022-09-21T08:34:25.007Z,2.22
2022-09-21T08:36:55.480Z,3.13
2022-09-21T08:39:23.901Z,3.15
2022-09-21T08:42:21.939Z,2.80
2022-09-21T08:44:59.752Z,2.70
2022-09-21T08:47:51.805Z,3.00
2022-09-21T08:50:23.748Z,3.20
2022-09-21T08:52:56.669Z,2.53
2022-09-21T08:55:24.799Z,2.25
2022-09-21T08:57:53.379Z,2.25
2022-09-21T09:00:21.612Z,2.53
2022-09-21T09:03:19.041Z,2.42
2022-09-21T09:06:16.007Z,1.83
2022-09-21T09:09:22.744Z,2.00
2022-09-21T09:12:37.125Z,1.85
2022-09-21T09:15:49.089Z,2.20
2022-09-21T09:18:26.499Z,1.88
2022-09-21T09:21:30.292Z,2.30
2022-09-21T09:24:42.333Z,1.13
2022-09-21T09:27:16.742Z,1.17
2022-09-21T09:30:16.429Z,1.33
2022-09-21T09:33:17.058Z,1.15
2022-09-21T09:35:57.954Z,1.00
2022-09-21T09:38:45.509Z,1.52
2022-09-21T09:41:37.031Z,1.42
2022-09-21T09:45:05.196Z,1.10
2022-09-21T09:48:03.214Z,1.30
2022-09-21T09:50:39.013Z,1.25
2022-09-21T09:53:11.987Z,1.10
2022-09-21T09:55:43.813Z,1.00
2022-09-21T09:58:39.472Z,1.10
2022-09-21T10:01:07.545Z,0.73
2022-09-21T10:03:36.111Z,0.90
2022-09-21T10:06:04.130Z,0.80
2022-09-21T10:08:39.171Z,1.00
2022-09-21T10:11:07.449Z,0.95
2022-09-21T10:13:38.344Z,0.80
2022-09-21T10:16:12.792Z,1.20
2022-09-21T10:18:48.652Z,1.10
2022-09-21T10:21:23.393Z,1.00
2022-09-21T10:23:57.325Z,1.45
2022-09-21T10:26:47.476Z,3.42
2022-09-21T10:29:18.182Z,1.75
2022-09-21T10:31:55.971Z,1.52
2022-09-21T10:34:24.503Z,1.35
2022-09-21T10:36:56.022Z,1.20
2022-09-21T10:39:33.549Z,1.10
2022-09-21T10:42:06.877Z,1.23
2022-09-21T10:44:49.839Z,1.00
2022-09-21T10:47:20.513Z,1.27
2022-09-21T10:49:57.735Z,1.00
2022-09-21T10:52:38.930Z,1.23
2022-09-21T10:55:08.385Z,0.85
2022-09-21T10:57:36.342Z,1.30
2022-09-21T11:00:37.653Z,0.93
2022-09-21T11:03:30.051Z,0.80
2022-09-21T11:06:07.311Z,0.70
2022-09-21T11:09:05.749Z,0.80
2022-09-21T11:11:54.984Z,1.05
2022-09-21T11:14:41.834Z,1.27
2022-09-21T11:17:28.213Z,1.15
2022-09-21T11:20:23.035Z,0.70
2022-09-21T11:23:03.724Z,1.00
2022-09-21T11:28:15.578Z,0.85
2022-09-21T11:31:29.359Z,0.75
2022-09-21T11:34:27.076Z,1.00
2022-09-21T11:37:22.041Z,0.90
2022-09-21T11:40:31.929Z,0.80
2022-09-21T11:43:44.078Z,0.60
2022-09-21T11:46:55.843Z,0.77
2022-09-21T11:50:03.073Z,1.05
2022-09-21T11:53:05.280Z,0.65
2022-09-21T11:55:50.523Z,0.70
2022-09-21T11:59:00.618Z,0.70
2022-09-21T12:01:50.031Z,0.80
2022-09-21T12:04:29.434Z,0.80
2022-09-21T12:07:25.468Z,0.73
2022-09-21T12:10:13.396Z,1.00
2022-09-21T12:12:50.176Z,0.77
2022-09-21T12:15:42.982Z,1.08
2022-09-21T12:18:34.384Z,0.90
2022-09-21T12:21:20.241Z,0.80
2022-09-21T12:24:16.509Z,0.45
2022-09-21T12:26:57.660Z,0.90
2022-09-21T12:29:47.218Z,0.82
2022-09-21T12:32:37.187Z,0.90
2022-09-21T12:35:09.755Z,1.13
2022-09-21T12:37:49.495Z,0.60
2022-09-21T12:40:57.845Z,0.87
2022-09-21T12:43:32.844Z,0.85
2022-09-21T12:46:12.907Z,1.00
2022-09-21T12:48:42.766Z,0.70
2022-09-21T12:51:32.710Z,0.93
2022-09-21T12:54:09.077Z,0.63
2022-09-21T12:56:56.533Z,0.60
2022-09-21T12:59:50.985Z,0.63
2022-09-21T13:02:48.745Z,0.70
2022-09-21T13:05:37.810Z,0.75
2022-09-21T13:08:25.379Z,0.80
2022-09-21T13:11:05.505Z,0.85
2022-09-21T13:13:52.829Z,0.75
2022-09-21T13:16:33.746Z,0.82
2022-09-21T13:19:05.628Z,0.40
2022-09-21T13:21:34.293Z,0.50
2022-09-21T13:24:08.554Z,0.43
2022-09-21T13:27:04.967Z,0.65
2022-09-21T13:29:35.979Z,0.68
2022-09-21T13:32:13.806Z,1.00
2022-09-21T13:34:46.820Z,0.57
2022-09-21T13:37:28.105Z,0.88
2022-09-21T13:40:02.024Z,0.70
2022-09-21T13:42:33.113Z,0.90
2022-09-21T13:45:19.019Z,0.60
2022-09-21T13:47:51.064Z,0.70
2022-09-21T13:50:26.411Z,0.90
2022-09-21T13:53:26.311Z,0.93
2022-09-21T13:56:00.681Z,0.82
2022-09-21T13:58:41.232Z,0.88
2022-09-21T14:01:45.666Z,1.00
2022-09-21T14:04:31.919Z,0.70
2022-09-21T14:07:05.726Z,0.85
2022-09-21T14:09:54.112Z,0.57
2022-09-21T14:12:25.507Z,0.63
2022-09-21T14:15:16.266Z,0.90
2022-09-21T14:17:45.335Z,0.55
2022-09-21T14:20:37.149Z,0.70
2022-09-21T14:23:14.410Z,0.65
2022-09-21T14:25:54.353Z,0.65
2022-09-21T14:28:35.341Z,0.90
2022-09-21T14:31:17.477Z,0.52
2022-09-21T14:33:55.055Z,0.88
2022-09-21T14:36:35.442Z,0.65
2022-09-21T14:41:41.516Z,0.55
2022-09-21T14:44:21.007Z,0.70
2022-09-21T14:47:00.733Z,0.63
2022-09-21T14:49:45.358Z,0.63
2022-09-21T14:53:08.544Z,0.90
2022-09-21T14:55:53.018Z,0.50
2022-09-21T14:58:45.003Z,0.80
2022-09-21T15:01:25.712Z,0.80
2022-09-21T15:07:50.134Z,1.08
2022-09-21T15:11:24.254Z,0.57
2022-09-21T15:14:21.270Z,0.68
2022-09-21T15:16:56.213Z,0.70
2022-09-21T15:19:28.035Z,0.60
2022-09-21T15:22:18.287Z,0.80
2022-09-21T15:24:50.559Z,0.75
2022-09-21T15:27:22.772Z,0.60
2022-09-21T15:29:54.361Z,0.98
2022-09-21T15:32:30.947Z,0.70
2022-09-21T15:35:02.112Z,0.77
2022-09-21T15:37:34.548Z,0.90
2022-09-21T15:40:04.582Z,0.80
2022-09-21T15:42:33.389Z,1.10
2022-09-21T15:45:19.049Z,0.95
2022-09-21T15:47:47.152Z,0.70
2022-09-21T15:50:17.708Z,1.00
2022-09-21T15:52:59.717Z,0.82
2022-09-21T15:55:28.046Z,1.05
2022-09-21T15:57:56.787Z,0.80
2022-09-21T16:00:28.613Z,1.92
2022-09-21T16:03:19.716Z,2.10
2022-09-21T16:05:51.136Z,2.22
2022-09-21T16:08:33.051Z,2.80
2022-09-21T16:11:26.703Z,2.17
2022-09-21T16:14:34.623Z,1.95
2022-09-21T16:17:09.131Z,1.35
2022-09-21T16:20:17.194Z,1.20
2022-09-21T16:22:52.499Z,1.10
2022-09-21T16:25:32.442Z,1.00
2022-09-21T16:28:22.524Z,1.00
2022-09-21T16:30:51.373Z,0.83
2022-09-21T16:33:44.334Z,0.82
2022-09-21T16:36:37.967Z,0.95
2022-09-21T16:39:12.790Z,1.20
2022-09-21T16:41:56.297Z,1.00
2022-09-21T16:44:26.091Z,1.13
2022-09-21T16:47:00.889Z,0.98
2022-09-21T16:49:33.523Z,1.10
2022-09-21T16:52:01.714Z,1.10
2022-09-21T16:54:30.148Z,1.30
2022-09-21T16:57:00.476Z,1.20
2022-09-21T16:59:29.192Z,1.27
2022-09-21T17:01:59.163Z,1.02
2022-09-21T17:04:30.079Z,1.05
2022-09-21T17:06:58.394Z,1.27
2022-09-21T17:09:33.733Z,1.25
2022-09-21T17:12:06.125Z,1.63
2022-09-21T17:14:36.425Z,1.88
2022-09-21T17:17:13.955Z,1.70
2022-09-21T17:19:46.403Z,1.40
2022-09-21T17:22:17.166Z,1.67
2022-09-21T17:24:54.836Z,1.70
2022-09-21T17:27:26.973Z,1.35
2022-09-21T17:29:57.803Z,1.50
2022-09-21T17:32:25.802Z,1.55
2022-09-21T17:35:15.620Z,1.70
2022-09-21T17:37:43.822Z,1.33
2022-09-21T17:40:12.501Z,1.30
2022-09-21T17:42:44.840Z,1.50
2022-09-21T17:45:44.919Z,1.52
2022-09-21T17:48:21.992Z,1.67
2022-09-21T17:50:50.981Z,1.60
2022-09-21T17:53:36.830Z,1.10
2022-09-21T17:56:49.719Z,1.40
2022-09-21T17:59:37.981Z,1.48
2022-09-21T18:02:25.983Z,1.77
2022-09-21T18:05:04.349Z,1.63
2022-09-21T18:07:32.637Z,1.50
2022-09-21T18:10:00.822Z,1.38
2022-09-21T18:12:48.526Z,1.95
2022-09-21T18:15:50.409Z,2.35
2022-09-21T18:18:38.209Z,1.83
2022-09-21T18:21:23.042Z,2.25
2022-09-21T18:24:07.888Z,2.00
2022-09-21T18:26:39.187Z,2.40
2022-09-21T18:29:35.350Z,2.95
2022-09-21T18:32:09.132Z,2.20
2022-09-21T18:35:13.893Z,2.47
2022-09-21T18:37:48.547Z,2.22
2022-09-21T18:40:38.712Z,1.58
2022-09-21T18:43:52.727Z,1.57
2022-09-21T18:46:34.552Z,1.98
2022-09-21T18:49:18.223Z,1.90
2022-09-21T18:52:17.155Z,1.92
2022-09-21T18:54:45.222Z,1.80
2022-09-21T18:57:14.896Z,1.95
2022-09-21T18:59:43.638Z,1.90
2022-09-21T19:02:18.109Z,1.85
2022-09-21T19:04:46.818Z,2.33
2022-09-21T19:07:42.246Z,1.75
2022-09-21T19:10:25.681Z,1.88
2022-09-21T19:13:28.995Z,2.25
2022-09-21T19:16:26.204Z,1.88
2022-09-21T19:19:12.852Z,2.00
2022-09-21T19:21:59.749Z,1.70
2022-09-21T19:24:44.108Z,1.80
2022-09-21T19:27:39.011Z,1.80
2022-09-21T19:30:14.224Z,1.50
2022-09-21T19:32:58.029Z,1.67
2022-09-21T19:35:27.125Z,2.10
2022-09-21T19:37:57.818Z,1.58
2022-09-21T19:40:35.426Z,1.63
2022-09-21T19:43:22.429Z,1.55
2022-09-21T19:46:12.352Z,2.05
2022-09-21T19:48:47.467Z,1.83
2022-09-21T19:51:47.950Z,1.70
2022-09-21T19:54:41.463Z,1.70
2022-09-21T19:57:38.544Z,1.35
2022-09-21T20:00:14.294Z,1.63
2022-09-21T20:03:11.374Z,1.60
2022-09-21T20:06:04.530Z,2.10
2022-09-21T20:08:36.838Z,1.60
2022-09-21T20:11:51.099Z,1.70
2022-09-21T20:14:28.134Z,1.58
2022-09-21T20:17:00.815Z,1.80
2022-09-21T20:19:53.006Z,1.90
2022-09-21T20:22:47.288Z,2.00
2022-09-21T20:25:26.384Z,1.67
2022-09-21T20:27:56.525Z,2.15
2022-09-21T20:30:28.617Z,2.15
2022-09-21T20:33:03.584Z,2.42
2022-09-21T20:35:31.738Z,1.77
2022-09-21T20:38:02.491Z,2.00
2022-09-21T20:40:31.879Z,1.95
2022-09-21T20:43:02.272Z,2.10
2022-09-21T20:45:31.383Z,1.45
2022-09-21T20:48:13.114Z,1.90
2022-09-21T20:50:46.246Z,2.60
2022-09-21T20:53:14.385Z,1.63
2022-09-21T20:55:43.926Z,2.00
2022-09-21T20:58:12.790Z,1.60
2022-09-21T21:00:41.022Z,1.73
2022-09-21T21:03:08.854Z,1.90
2022-09-21T21:05:37.146Z,1.30
2022-09-21T21:08:05.167Z,1.80
2022-09-21T21:10:33.400Z,1.80
2022-09-21T21:13:01.727Z,2.15
2022-09-21T21:15:29.738Z,2.17
2022-09-21T21:17:57.609Z,1.60
2022-09-21T21:20:25.633Z,2.33
2022-09-21T21:22:53.714Z,1.80
2022-09-21T21:25:21.723Z,1.88
2022-09-21T21:27:49.579Z,2.00
2022-09-21T21:30:18.137Z,1.70
2022-09-21T21:32:46.022Z,1.65
2022-09-21T21:35:13.995Z,1.63
2022-09-21T21:37:41.921Z,2.20
2022-09-21T21:40:10.431Z,1.63
2022-09-21T21:42:38.312Z,2.05
2022-09-21T21:45:06.629Z,2.13
2022-09-21T21:47:39.642Z,2.08
2022-09-21T21:50:09.190Z,1.70
2022-09-21T21:52:37.555Z,1.88
2022-09-21T21:55:06.161Z,2.33
2022-09-21T21:57:34.767Z,1.83
2022-09-21T22:00:03.831Z,1.83
2022-09-21T22:02:32.787Z,1.98
2022-09-21T22:05:00.764Z,2.38
2022-09-21T22:07:28.730Z,1.85
2022-09-21T22:09:56.565Z,1.85
2022-09-21T22:12:25.947Z,1.80
2022-09-21T22:14:54.327Z,2.03
2022-09-21T22:17:22.446Z,1.50
2022-09-21T22:19:51.374Z,1.88
2022-09-21T22:22:19.315Z,1.98
2022-09-21T22:24:47.989Z,1.77
2022-09-21T22:27:16.377Z,1.92
2022-09-21T22:29:44.843Z,2.08
2022-09-21T22:32:12.679Z,1.67
2022-09-21T22:34:40.598Z,1.67
2022-09-21T22:37:08.402Z,1.77
2022-09-21T22:39:36.262Z,1.60
2022-09-21T22:42:04.302Z,1.65
2022-09-21T22:44:33.244Z,1.80
2022-09-21T22:47:01.104Z,1.67
2022-09-21T22:49:28.961Z,1.95
2022-09-21T22:51:56.827Z,2.05
2022-09-21T22:54:24.731Z,1.80
2022-09-21T22:56:52.974Z,1.83
2022-09-21T22:59:20.836Z,2.10
2022-09-21T23:01:48.735Z,1.40
2022-09-21T23:04:17.080Z,1.80
2022-09-21T23:06:45.878Z,1.90
2022-09-21T23:09:19.870Z,1.70
2022-09-21T23:11:53.508Z,1.67
2022-09-21T23:14:22.578Z,2.17
2022-09-21T23:16:51.483Z,1.95
2022-09-21T23:19:19.683Z,1.70
2022-09-21T23:21:49.997Z,1.27
2022-09-21T23:24:19.959Z,1.75
2022-09-21T23:26:51.101Z,1.73
2022-09-21T23:29:19.341Z,1.45
2022-09-21T23:31:47.252Z,1.77
2022-09-21T23:34:15.738Z,2.03
2022-09-21T23:36:45.052Z,1.73
2022-09-21T23:39:14.656Z,1.35
2022-09-21T23:41:43.153Z,1.73
2022-09-21T23:44:11.219Z,1.63
2022-09-21T23:46:40.424Z,2.05
2022-09-21T23:49:08.455Z,2.65
2022-09-21T23:51:36.503Z,1.70
2022-09-21T23:54:04.813Z,1.80
2022-09-21T23:56:33.199Z,1.55
2022-09-21T23:59:01.502Z,1.55
